This is the latest recevied weather packets stored in our database for station/object HK3BJ-11. If no packets are shown the sender has not sent any weather packets the latest 10 day(s).
| Time | Temp. | Humidity | Pressure | Rain* | Wind** | Luminosity | Snow |
|---|---|---|---|---|---|---|---|
| 1787681785 | 18.89° C | 63% | 1017 hPa | 0 mm | - | - | - |
| 1787680835 | 17.78° C | 63% | 1017 hPa | 0 mm | - | - | - |
| 1787679892 | 16.67° C | 63% | 1017 hPa | 0 mm | - | - | - |
| 1787678005 | 15.56° C | 63% | 1017 hPa | 0 mm | - | - | - |
| 1787677061 | 17.22° C | 64% | 1017 hPa | 0 mm | - | - | - |
| 1787676118 | 16.11° C | 64% | 1017 hPa | 0 mm | - | - | - |
| 1787675172 | 19.44° C | 65% | 1017 hPa | 0 mm | - | - | - |
| 1787674228 | 18.33° C | 65% | 1017 hPa | 0 mm | - | - | - |
| 1787673288 | 17.22° C | 65% | 1017 hPa | 0 mm | - | - | - |
| 1787672347 | 16.11° C | 65% | 1017 hPa | 0 mm | - | - | - |
| 1787671399 | 20° C | 78% | 1018 hPa | 0 mm | - | - | - |
| 1787670457 | 18.89° C | 78% | 1018 hPa | 0 mm | - | - | - |
| 1787669516 | 17.78° C | 78% | 1018 hPa | 0 mm | - | - | - |
| 1787668575 | 16.67° C | 78% | 1018 hPa | 0 mm | - | - | - |
| 1787667634 | 15.56° C | 78% | 1019 hPa | 0 mm | - | - | - |
| 1787666693 | 17.22° C | 81% | 1019 hPa | 0 mm | - | - | - |
| 1787665754 | 16.11° C | 81% | 1019 hPa | 0 mm | - | - | - |
| 1787664804 | 15° C | 81% | 1019 hPa | 0 mm | - | - | - |
| 1787663859 | 13.89° C | 81% | 1020 hPa | 0 mm | - | - | - |
| 1787662914 | 12.78° C | 81% | 1020 hPa | 0 mm | - | - | - |
| 1787661965 | 11.67° C | 81% | 1020 hPa | 0 mm | - | - | - |
| 1787661021 | 7.78° C | 83% | 1020 hPa | 0 mm | - | - | - |
| 1787660075 | 11.67° C | 91% | 1021 hPa | 0 mm | - | - | - |
| 1787659128 | 10.56° C | 91% | 1021 hPa | 0 mm | - | - | - |
| 1787658186 | 9.44° C | 91% | 1021 hPa | 0 mm | - | - | - |
* Rain latest hour (hover to see other rain measurements)
** Current wind speed in m/s (hover to see current wind gust speed)